Terminal Aerodrome Forecast
Issued by NWS Twin Cities, MN

Home | Current Version | Previous Version | Text Only | Print | Product List | Glossary On
Versions: 1 2 3 4 5 6 7 8 9 10 11 12
009
FTUS43 KMPX 230520
TAFEAU
TAF
KEAU 230520Z 2306/2406 13008KT P6SM OVC080
     FM231600 15012KT P6SM OVC050
     FM232000 16013KT P6SM OVC025
     FM240200 17010KT 6SM -RA OVC015=

USA.gov is the U.S. government's official web portal to all federal, state and local government web resources and services.